sensor_id;sensor_type;location;lat;lon;timestamp;pressure;altitude;pressure_sealevel;temperature;humidity
42601;BME280;28229;48.856;9.088;2022-12-17T00:01:53;98246.25;;;-6.26;85.29
42601;BME280;28229;48.856;9.088;2022-12-17T00:04:38;98255.06;;;-6.30;84.83
42601;BME280;28229;48.856;9.088;2022-12-17T00:07:22;98256.19;;;-6.34;84.31
42601;BME280;28229;48.856;9.088;2022-12-17T00:10:07;98256.69;;;-6.42;84.32
42601;BME280;28229;48.856;9.088;2022-12-17T00:12:52;98253.03;;;-6.38;85.07
42601;BME280;28229;48.856;9.088;2022-12-17T00:15:37;98266.94;;;-6.29;88.56
42601;BME280;28229;48.856;9.088;2022-12-17T00:18:21;98263.44;;;-6.28;90.30
42601;BME280;28229;48.856;9.088;2022-12-17T00:21:06;98264.97;;;-6.38;91.44
42601;BME280;28229;48.856;9.088;2022-12-17T00:23:52;98260.19;;;-6.56;90.99
42601;BME280;28229;48.856;9.088;2022-12-17T00:26:36;98267.94;;;-6.70;90.23
42601;BME280;28229;48.856;9.088;2022-12-17T00:29:21;98271.81;;;-6.77;88.99
42601;BME280;28229;48.856;9.088;2022-12-17T00:32:07;98269.13;;;-6.76;87.67
42601;BME280;28229;48.856;9.088;2022-12-17T00:34:52;98279.16;;;-6.85;87.67
42601;BME280;28229;48.856;9.088;2022-12-17T00:37:37;98285.41;;;-6.90;88.26
42601;BME280;28229;48.856;9.088;2022-12-17T00:40:22;98286.50;;;-6.94;89.23
42601;BME280;28229;48.856;9.088;2022-12-17T00:43:11;98284.88;;;-6.95;88.20
42601;BME280;28229;48.856;9.088;2022-12-17T00:45:56;98290.69;;;-7.05;87.04
42601;BME280;28229;48.856;9.088;2022-12-17T00:48:40;98297.72;;;-7.09;86.52
42601;BME280;28229;48.856;9.088;2022-12-17T00:51:25;98302.84;;;-7.09;85.11
42601;BME280;28229;48.856;9.088;2022-12-17T00:54:10;98303.78;;;-7.24;84.90
42601;BME280;28229;48.856;9.088;2022-12-17T00:56:56;98300.69;;;-7.30;84.19
42601;BME280;28229;48.856;9.088;2022-12-17T00:59:40;98304.56;;;-7.37;84.19
42601;BME280;28229;48.856;9.088;2022-12-17T01:02:25;98308.22;;;-7.41;83.96
42601;BME280;28229;48.856;9.088;2022-12-17T01:05:10;98308.97;;;-7.53;84.85
42601;BME280;28229;48.856;9.088;2022-12-17T01:07:55;98309.78;;;-7.53;86.19
42601;BME280;28229;48.856;9.088;2022-12-17T01:10:40;98309.34;;;-7.59;85.44
42601;BME280;28229;48.856;9.088;2022-12-17T01:13:25;98316.47;;;-7.64;84.56
42601;BME280;28229;48.856;9.088;2022-12-17T01:16:12;98315.72;;;-7.67;85.46
42601;BME280;28229;48.856;9.088;2022-12-17T01:18:58;98324.97;;;-7.64;85.19
42601;BME280;28229;48.856;9.088;2022-12-17T01:21:44;98333.25;;;-7.60;85.06
42601;BME280;28229;48.856;9.088;2022-12-17T01:24:29;98330.78;;;-7.62;86.09
42601;BME280;28229;48.856;9.088;2022-12-17T01:27:33;98324.41;;;-7.69;86.65
42601;BME280;28229;48.856;9.088;2022-12-17T01:30:18;98329.53;;;-7.69;86.25
42601;BME280;28229;48.856;9.088;2022-12-17T01:33:05;98323.16;;;-7.76;85.36
42601;BME280;28229;48.856;9.088;2022-12-17T01:35:56;98320.22;;;-7.85;84.82
42601;BME280;28229;48.856;9.088;2022-12-17T01:38:41;98329.16;;;-7.92;84.81
42601;BME280;28229;48.856;9.088;2022-12-17T01:41:26;98330.44;;;-7.85;84.00
42601;BME280;28229;48.856;9.088;2022-12-17T01:47:38;98339.28;;;-8.05;84.48
42601;BME280;28229;48.856;9.088;2022-12-17T01:50:26;98336.19;;;-8.10;84.72
42601;BME280;28229;48.856;9.088;2022-12-17T01:53:12;98340.94;;;-8.04;83.95
42601;BME280;28229;48.856;9.088;2022-12-17T01:55:58;98348.13;;;-8.10;83.93
42601;BME280;28229;48.856;9.088;2022-12-17T01:58:43;98352.94;;;-8.20;84.52
42601;BME280;28229;48.856;9.088;2022-12-17T02:01:28;98349.72;;;-8.24;84.88
42601;BME280;28229;48.856;9.088;2022-12-17T02:04:13;98358.56;;;-8.29;84.96
42601;BME280;28229;48.856;9.088;2022-12-17T02:10:22;98368.22;;;-8.34;86.05
42601;BME280;28229;48.856;9.088;2022-12-17T02:13:20;98370.34;;;-8.27;85.25
42601;BME280;28229;48.856;9.088;2022-12-17T02:16:12;98375.16;;;-8.36;85.45
42601;BME280;28229;48.856;9.088;2022-12-17T02:21:56;98368.03;;;-8.46;84.35
42601;BME280;28229;48.856;9.088;2022-12-17T02:24:59;98370.97;;;-8.52;83.48
42601;BME280;28229;48.856;9.088;2022-12-17T02:27:49;98370.19;;;-8.54;83.55
42601;BME280;28229;48.856;9.088;2022-12-17T02:30:35;98374.56;;;-8.56;84.08
42601;BME280;28229;48.856;9.088;2022-12-17T02:33:21;98381.78;;;-8.63;83.93
42601;BME280;28229;48.856;9.088;2022-12-17T02:36:07;98378.06;;;-8.73;84.42
42601;BME280;28229;48.856;9.088;2022-12-17T02:38:52;98384.00;;;-8.72;84.19
42601;BME280;28229;48.856;9.088;2022-12-17T02:41:48;98391.06;;;-8.77;84.51
42601;BME280;28229;48.856;9.088;2022-12-17T02:44:47;98389.94;;;-8.88;84.65
42601;BME280;28229;48.856;9.088;2022-12-17T02:47:32;98400.13;;;-8.88;84.47
42601;BME280;28229;48.856;9.088;2022-12-17T02:50:18;98403.75;;;-8.92;84.55
42601;BME280;28229;48.856;9.088;2022-12-17T02:53:03;98407.22;;;-8.93;85.15
42601;BME280;28229;48.856;9.088;2022-12-17T02:56:01;98411.25;;;-8.89;85.24
42601;BME280;28229;48.856;9.088;2022-12-17T02:58:46;98417.09;;;-8.87;85.82
42601;BME280;28229;48.856;9.088;2022-12-17T03:01:33;98422.53;;;-8.93;86.30
42601;BME280;28229;48.856;9.088;2022-12-17T03:04:17;98418.31;;;-8.94;87.00
42601;BME280;28229;48.856;9.088;2022-12-17T03:07:05;98413.94;;;-8.92;87.30
42601;BME280;28229;48.856;9.088;2022-12-17T03:09:49;98420.72;;;-8.91;87.15
42601;BME280;28229;48.856;9.088;2022-12-17T03:12:38;98422.19;;;-8.87;88.07
42601;BME280;28229;48.856;9.088;2022-12-17T03:15:23;98432.97;;;-8.82;88.71
42601;BME280;28229;48.856;9.088;2022-12-17T03:18:07;98430.97;;;-8.76;88.92
42601;BME280;28229;48.856;9.088;2022-12-17T03:20:53;98428.34;;;-8.75;89.01
42601;BME280;28229;48.856;9.088;2022-12-17T03:23:37;98432.28;;;-8.69;89.21
42601;BME280;28229;48.856;9.088;2022-12-17T03:26:22;98433.03;;;-8.67;89.14
42601;BME280;28229;48.856;9.088;2022-12-17T03:29:06;98446.19;;;-8.59;89.81
42601;BME280;28229;48.856;9.088;2022-12-17T03:31:51;98441.34;;;-8.64;89.77
42601;BME280;28229;48.856;9.088;2022-12-17T03:34:35;98446.19;;;-8.59;90.03
42601;BME280;28229;48.856;9.088;2022-12-17T03:37:19;98437.28;;;-8.52;90.31
42601;BME280;28229;48.856;9.088;2022-12-17T03:40:04;98439.72;;;-8.50;90.71
42601;BME280;28229;48.856;9.088;2022-12-17T03:42:49;98445.69;;;-8.50;90.69
42601;BME280;28229;48.856;9.088;2022-12-17T03:45:33;98445.50;;;-8.47;90.50
42601;BME280;28229;48.856;9.088;2022-12-17T03:48:18;98456.97;;;-8.39;90.37
42601;BME280;28229;48.856;9.088;2022-12-17T03:51:02;98457.91;;;-8.40;90.57
42601;BME280;28229;48.856;9.088;2022-12-17T03:53:47;98455.19;;;-8.37;90.31
42601;BME280;28229;48.856;9.088;2022-12-17T03:56:31;98454.97;;;-8.34;90.66
42601;BME280;28229;48.856;9.088;2022-12-17T03:59:16;98461.75;;;-8.33;90.57
42601;BME280;28229;48.856;9.088;2022-12-17T04:02:00;98456.03;;;-8.23;90.96
42601;BME280;28229;48.856;9.088;2022-12-17T04:04:45;98449.69;;;-8.15;91.49
42601;BME280;28229;48.856;9.088;2022-12-17T04:07:30;98444.56;;;-8.15;92.14
42601;BME280;28229;48.856;9.088;2022-12-17T04:10:29;98458.16;;;-8.15;93.04
42601;BME280;28229;48.856;9.088;2022-12-17T04:13:14;98461.09;;;-8.07;93.88
42601;BME280;28229;48.856;9.088;2022-12-17T04:15:58;98466.78;;;-8.01;94.76
42601;BME280;28229;48.856;9.088;2022-12-17T04:18:43;98470.88;;;-7.99;95.01
42601;BME280;28229;48.856;9.088;2022-12-17T04:21:27;98473.19;;;-7.94;95.85
42601;BME280;28229;48.856;9.088;2022-12-17T04:24:11;98473.19;;;-7.94;97.21
42601;BME280;28229;48.856;9.088;2022-12-17T04:26:56;98487.81;;;-7.82;98.26
42601;BME280;28229;48.856;9.088;2022-12-17T04:29:40;98486.78;;;-7.79;99.17
42601;BME280;28229;48.856;9.088;2022-12-17T04:32:25;98487.19;;;-7.71;99.97
42601;BME280;28229;48.856;9.088;2022-12-17T04:35:09;98488.94;;;-7.72;100.00
42601;BME280;28229;48.856;9.088;2022-12-17T04:37:53;98489.66;;;-7.70;100.00
42601;BME280;28229;48.856;9.088;2022-12-17T04:40:38;98499.69;;;-7.67;100.00
42601;BME280;28229;48.856;9.088;2022-12-17T04:43:22;98498.88;;;-7.67;100.00
42601;BME280;28229;48.856;9.088;2022-12-17T04:46:07;98492.78;;;-7.50;99.27
42601;BME280;28229;48.856;9.088;2022-12-17T04:48:51;98497.69;;;-7.47;98.42
42601;BME280;28229;48.856;9.088;2022-12-17T04:51:36;98499.75;;;-7.38;98.21
42601;BME280;28229;48.856;9.088;2022-12-17T04:54:20;98501.09;;;-7.32;98.75
42601;BME280;28229;48.856;9.088;2022-12-17T04:57:04;98507.59;;;-7.27;97.99
42601;BME280;28229;48.856;9.088;2022-12-17T04:59:49;98508.88;;;-7.34;97.45
42601;BME280;28229;48.856;9.088;2022-12-17T05:02:33;98507.22;;;-7.35;98.04
42601;BME280;28229;48.856;9.088;2022-12-17T05:05:17;98509.50;;;-7.30;98.66
42601;BME280;28229;48.856;9.088;2022-12-17T05:08:01;98513.59;;;-7.42;98.66
42601;BME280;28229;48.856;9.088;2022-12-17T05:10:46;98518.06;;;-7.31;98.96
42601;BME280;28229;48.856;9.088;2022-12-17T05:13:30;98519.66;;;-7.29;98.42
42601;BME280;28229;48.856;9.088;2022-12-17T05:16:14;98522.53;;;-7.35;98.57
42601;BME280;28229;48.856;9.088;2022-12-17T05:18:58;98528.94;;;-7.28;99.37
42601;BME280;28229;48.856;9.088;2022-12-17T05:21:43;98530.22;;;-7.35;99.76
42601;BME280;28229;48.856;9.088;2022-12-17T05:24:27;98539.81;;;-7.24;100.00
42601;BME280;28229;48.856;9.088;2022-12-17T05:27:12;98532.69;;;-7.19;100.00
42601;BME280;28229;48.856;9.088;2022-12-17T05:29:56;98535.53;;;-7.23;100.00
42601;BME280;28229;48.856;9.088;2022-12-17T05:32:41;98538.75;;;-7.20;100.00
42601;BME280;28229;48.856;9.088;2022-12-17T05:35:25;98540.44;;;-7.20;100.00
42601;BME280;28229;48.856;9.088;2022-12-17T05:38:10;98536.34;;;-7.37;100.00
42601;BME280;28229;48.856;9.088;2022-12-17T05:40:56;98541.00;;;-7.30;100.00
42601;BME280;28229;48.856;9.088;2022-12-17T05:43:41;98543.19;;;-7.38;100.00
42601;BME280;28229;48.856;9.088;2022-12-17T05:46:25;98545.84;;;-7.39;100.00
42601;BME280;28229;48.856;9.088;2022-12-17T05:49:10;98549.94;;;-7.37;100.00
42601;BME280;28229;48.856;9.088;2022-12-17T05:51:54;98549.94;;;-7.37;100.00
42601;BME280;28229;48.856;9.088;2022-12-17T05:54:38;98554.97;;;-7.35;100.00
42601;BME280;28229;48.856;9.088;2022-12-17T05:57:23;98562.47;;;-7.32;100.00
42601;BME280;28229;48.856;9.088;2022-12-17T06:00:08;98557.41;;;-7.48;100.00
42601;BME280;28229;48.856;9.088;2022-12-17T06:02:59;98554.06;;;-7.34;100.00
42601;BME280;28229;48.856;9.088;2022-12-17T06:05:44;98565.09;;;-7.34;100.00
42601;BME280;28229;48.856;9.088;2022-12-17T06:08:29;98567.28;;;-7.28;100.00
42601;BME280;28229;48.856;9.088;2022-12-17T06:11:13;98575.50;;;-7.37;100.00
42601;BME280;28229;48.856;9.088;2022-12-17T06:13:57;98573.38;;;-7.44;100.00
42601;BME280;28229;48.856;9.088;2022-12-17T06:16:42;98575.03;;;-7.43;100.00
42601;BME280;28229;48.856;9.088;2022-12-17T06:19:26;98574.19;;;-7.44;100.00
42601;BME280;28229;48.856;9.088;2022-12-17T06:22:11;98571.72;;;-7.46;100.00
42601;BME280;28229;48.856;9.088;2022-12-17T06:24:56;98581.88;;;-7.44;100.00
42601;BME280;28229;48.856;9.088;2022-12-17T06:27:40;98581.25;;;-7.33;100.00
42601;BME280;28229;48.856;9.088;2022-12-17T06:30:24;98576.78;;;-7.30;100.00
42601;BME280;28229;48.856;9.088;2022-12-17T06:33:10;98580.28;;;-7.31;100.00
42601;BME280;28229;48.856;9.088;2022-12-17T06:35:56;98581.91;;;-7.30;100.00
42601;BME280;28229;48.856;9.088;2022-12-17T06:38:42;98586.84;;;-7.27;100.00
42601;BME280;28229;48.856;9.088;2022-12-17T06:41:26;98591.25;;;-7.14;100.00
42601;BME280;28229;48.856;9.088;2022-12-17T06:44:10;98598.69;;;-7.25;100.00
42601;BME280;28229;48.856;9.088;2022-12-17T06:46:55;98598.63;;;-7.10;100.00
42601;BME280;28229;48.856;9.088;2022-12-17T06:49:39;98601.84;;;-7.06;100.00
42601;BME280;28229;48.856;9.088;2022-12-17T06:52:24;98604.22;;;-7.03;100.00
42601;BME280;28229;48.856;9.088;2022-12-17T06:55:09;98600.75;;;-7.02;100.00
42601;BME280;28229;48.856;9.088;2022-12-17T06:57:55;98597.28;;;-7.01;100.00
42601;BME280;28229;48.856;9.088;2022-12-17T07:00:40;98603.50;;;-6.91;100.00
42601;BME280;28229;48.856;9.088;2022-12-17T07:03:24;98606.25;;;-6.79;100.00
42601;BME280;28229;48.856;9.088;2022-12-17T07:06:10;98613.75;;;-6.76;100.00
42601;BME280;28229;48.856;9.088;2022-12-17T07:08:54;98619.25;;;-6.68;100.00
42601;BME280;28229;48.856;9.088;2022-12-17T07:11:39;98631.09;;;-6.67;100.00
42601;BME280;28229;48.856;9.088;2022-12-17T07:14:23;98636.31;;;-6.54;100.00
42601;BME280;28229;48.856;9.088;2022-12-17T07:17:07;98628.91;;;-6.59;100.00
42601;BME280;28229;48.856;9.088;2022-12-17T07:19:52;98627.25;;;-6.60;100.00
42601;BME280;28229;48.856;9.088;2022-12-17T07:22:36;98636.75;;;-6.76;100.00
42601;BME280;28229;48.856;9.088;2022-12-17T07:25:20;98645.63;;;-6.82;100.00
42601;BME280;28229;48.856;9.088;2022-12-17T07:28:05;98646.72;;;-6.86;100.00
42601;BME280;28229;48.856;9.088;2022-12-17T07:31:00;98648.78;;;-7.07;100.00
42601;BME280;28229;48.856;9.088;2022-12-17T07:33:44;98650.97;;;-7.15;100.00
42601;BME280;28229;48.856;9.088;2022-12-17T07:36:28;98656.97;;;-7.31;100.00
42601;BME280;28229;48.856;9.088;2022-12-17T07:39:13;98666.47;;;-7.18;100.00
42601;BME280;28229;48.856;9.088;2022-12-17T07:41:57;98668.50;;;-7.23;100.00
42601;BME280;28229;48.856;9.088;2022-12-17T07:44:41;98671.88;;;-7.23;100.00
42601;BME280;28229;48.856;9.088;2022-12-17T07:47:25;98679.38;;;-7.20;100.00
42601;BME280;28229;48.856;9.088;2022-12-17T07:50:10;98683.63;;;-7.20;100.00
42601;BME280;28229;48.856;9.088;2022-12-17T07:53:01;98688.09;;;-7.24;100.00
42601;BME280;28229;48.856;9.088;2022-12-17T07:55:45;98679.13;;;-7.31;100.00
42601;BME280;28229;48.856;9.088;2022-12-17T07:58:30;98688.94;;;-7.23;100.00
42601;BME280;28229;48.856;9.088;2022-12-17T08:01:14;98689.03;;;-7.25;100.00
42601;BME280;28229;48.856;9.088;2022-12-17T08:03:59;98691.88;;;-7.15;100.00
42601;BME280;28229;48.856;9.088;2022-12-17T08:06:43;98698.13;;;-7.05;100.00
42601;BME280;28229;48.856;9.088;2022-12-17T08:09:27;98702.13;;;-7.01;100.00
42601;BME280;28229;48.856;9.088;2022-12-17T08:12:11;98717.16;;;-6.95;100.00
42601;BME280;28229;48.856;9.088;2022-12-17T08:14:56;98718.63;;;-6.91;100.00
42601;BME280;28229;48.856;9.088;2022-12-17T08:17:41;98725.19;;;-6.86;100.00
42601;BME280;28229;48.856;9.088;2022-12-17T08:20:26;98731.03;;;-6.84;100.00
42601;BME280;28229;48.856;9.088;2022-12-17T08:23:10;98733.22;;;-6.93;100.00
42601;BME280;28229;48.856;9.088;2022-12-17T08:25:55;98730.63;;;-7.07;100.00
42601;BME280;28229;48.856;9.088;2022-12-17T08:28:39;98736.53;;;-6.91;99.62
42601;BME280;28229;48.856;9.088;2022-12-17T08:31:24;98739.81;;;-6.89;98.91
42601;BME280;28229;48.856;9.088;2022-12-17T08:34:08;98738.69;;;-6.99;98.52
42601;BME280;28229;48.856;9.088;2022-12-17T08:36:53;98755.69;;;-6.98;98.27
42601;BME280;28229;48.856;9.088;2022-12-17T08:39:37;98746.47;;;-7.00;98.08
42601;BME280;28229;48.856;9.088;2022-12-17T08:42:22;98755.03;;;-7.01;98.46
42601;BME280;28229;48.856;9.088;2022-12-17T08:45:07;98754.38;;;-7.05;97.78
42601;BME280;28229;48.856;9.088;2022-12-17T08:47:51;98759.25;;;-7.00;98.43
42601;BME280;28229;48.856;9.088;2022-12-17T08:50:35;98764.47;;;-7.02;97.58
42601;BME280;28229;48.856;9.088;2022-12-17T08:53:19;98770.81;;;-7.09;97.23
42601;BME280;28229;48.856;9.088;2022-12-17T08:56:04;98769.72;;;-7.05;96.97
42601;BME280;28229;48.856;9.088;2022-12-17T08:58:48;98775.00;;;-7.08;96.36
42601;BME280;28229;48.856;9.088;2022-12-17T09:01:35;98773.81;;;-6.86;96.90
42601;BME280;28229;48.856;9.088;2022-12-17T09:04:19;98768.84;;;-6.74;96.54
42601;BME280;28229;48.856;9.088;2022-12-17T09:07:03;98775.06;;;-6.63;96.13
42601;BME280;28229;48.856;9.088;2022-12-17T09:09:48;98781.91;;;-6.64;94.99
42601;BME280;28229;48.856;9.088;2022-12-17T09:12:32;98791.06;;;-6.60;94.19
42601;BME280;28229;48.856;9.088;2022-12-17T09:15:17;98790.13;;;-6.73;93.80
42601;BME280;28229;48.856;9.088;2022-12-17T09:18:01;98787.97;;;-6.81;93.65
42601;BME280;28229;48.856;9.088;2022-12-17T09:20:53;98783.72;;;-6.80;94.06
42601;BME280;28229;48.856;9.088;2022-12-17T09:23:38;98785.19;;;-6.76;94.40
42601;BME280;28229;48.856;9.088;2022-12-17T09:26:23;98789.59;;;-6.64;94.17
42601;BME280;28229;48.856;9.088;2022-12-17T09:29:07;98790.38;;;-6.47;93.96
42601;BME280;28229;48.856;9.088;2022-12-17T09:31:52;98800.63;;;-6.33;93.60
42601;BME280;28229;48.856;9.088;2022-12-17T09:34:36;98799.19;;;-6.23;93.31
42601;BME280;28229;48.856;9.088;2022-12-17T09:37:21;98800.19;;;-6.25;92.41
42601;BME280;28229;48.856;9.088;2022-12-17T09:40:05;98796.88;;;-6.27;91.58
42601;BME280;28229;48.856;9.088;2022-12-17T09:42:57;98805.50;;;-6.28;91.48
42601;BME280;28229;48.856;9.088;2022-12-17T09:45:56;98800.53;;;-6.32;91.44
42601;BME280;28229;48.856;9.088;2022-12-17T09:49:04;98803.91;;;-6.31;91.33
42601;BME280;28229;48.856;9.088;2022-12-17T09:51:54;98802.66;;;-6.24;91.46
42601;BME280;28229;48.856;9.088;2022-12-17T09:54:42;98802.69;;;-6.09;91.41
42601;BME280;28229;48.856;9.088;2022-12-17T09:57:32;98799.97;;;-5.94;92.57
42601;BME280;28229;48.856;9.088;2022-12-17T10:00:26;98797.16;;;-5.89;90.52
42601;BME280;28229;48.856;9.088;2022-12-17T10:03:15;98791.69;;;-5.83;90.53
42601;BME280;28229;48.856;9.088;2022-12-17T10:06:08;98794.03;;;-5.65;91.92
42601;BME280;28229;48.856;9.088;2022-12-17T10:09:01;98792.69;;;-5.44;91.70
42601;BME280;28229;48.856;9.088;2022-12-17T10:11:46;98794.13;;;-5.25;90.85
42601;BME280;28229;48.856;9.088;2022-12-17T10:14:31;98797.25;;;-4.80;99.14
42601;BME280;28229;48.856;9.088;2022-12-17T10:17:18;98793.34;;;-4.33;100.00
42601;BME280;28229;48.856;9.088;2022-12-17T10:20:56;98797.38;;;-4.69;90.91
42601;BME280;28229;48.856;9.088;2022-12-17T10:23:32;98807.66;;;-4.69;91.03
42601;BME280;28229;48.856;9.088;2022-12-17T10:26:22;98803.63;;;-4.33;93.27
42601;BME280;28229;48.856;9.088;2022-12-17T10:29:13;98798.91;;;-4.13;87.48
42601;BME280;28229;48.856;9.088;2022-12-17T10:32:08;98809.28;;;-4.02;87.08
42601;BME280;28229;48.856;9.088;2022-12-17T10:34:56;98797.97;;;-4.12;85.02
42601;BME280;28229;48.856;9.088;2022-12-17T10:37:40;98798.88;;;-4.52;85.90
42601;BME280;28229;48.856;9.088;2022-12-17T10:40:27;98798.28;;;-4.30;88.59
42601;BME280;28229;48.856;9.088;2022-12-17T10:46:09;98801.66;;;-3.78;84.52
42601;BME280;28229;48.856;9.088;2022-12-17T10:49:10;98795.88;;;-3.82;84.16
42601;BME280;28229;48.856;9.088;2022-12-17T10:52:06;98790.56;;;-3.91;83.25
42601;BME280;28229;48.856;9.088;2022-12-17T10:55:01;98788.59;;;-3.88;85.49
42601;BME280;28229;48.856;9.088;2022-12-17T10:57:47;98791.97;;;-3.74;83.91
42601;BME280;28229;48.856;9.088;2022-12-17T11:00:35;98793.84;;;-3.89;82.36
42601;BME280;28229;48.856;9.088;2022-12-17T11:06:42;98792.63;;;-4.09;84.71
42601;BME280;28229;48.856;9.088;2022-12-17T11:12:13;98798.19;;;-3.90;84.19
42601;BME280;28229;48.856;9.088;2022-12-17T11:15:06;98804.97;;;-3.76;84.55
42601;BME280;28229;48.856;9.088;2022-12-17T11:17:54;98802.94;;;-3.47;85.50
42601;BME280;28229;48.856;9.088;2022-12-17T11:20:45;98803.25;;;-3.38;81.79
42601;BME280;28229;48.856;9.088;2022-12-17T11:23:31;98810.75;;;-3.11;84.40
42601;BME280;28229;48.856;9.088;2022-12-17T11:26:17;98806.97;;;-2.94;83.97
42601;BME280;28229;48.856;9.088;2022-12-17T11:29:03;98812.31;;;-2.49;84.43
42601;BME280;28229;48.856;9.088;2022-12-17T11:32:19;98817.25;;;-2.46;80.08
42601;BME280;28229;48.856;9.088;2022-12-17T11:35:08;98811.84;;;-2.43;79.36
42601;BME280;28229;48.856;9.088;2022-12-17T11:40:54;98810.34;;;-2.70;78.90
42601;BME280;28229;48.856;9.088;2022-12-17T11:43:50;98811.41;;;-2.72;79.29
42601;BME280;28229;48.856;9.088;2022-12-17T11:50:26;98810.44;;;-1.78;80.46
42601;BME280;28229;48.856;9.088;2022-12-17T11:56:29;98802.22;;;-0.41;73.05
42601;BME280;28229;48.856;9.088;2022-12-17T11:59:31;98801.00;;;0.06;70.60
42601;BME280;28229;48.856;9.088;2022-12-17T12:02:44;98793.44;;;0.64;66.97
42601;BME280;28229;48.856;9.088;2022-12-17T12:05:46;98796.81;;;0.55;66.67
42601;BME280;28229;48.856;9.088;2022-12-17T12:08:54;98810.00;;;0.42;66.23
42601;BME280;28229;48.856;9.088;2022-12-17T12:11:54;98801.28;;;0.12;66.67
42601;BME280;28229;48.856;9.088;2022-12-17T12:17:47;98796.78;;;-0.38;67.89
42601;BME280;28229;48.856;9.088;2022-12-17T12:27:34;98803.00;;;-0.61;69.03
42601;BME280;28229;48.856;9.088;2022-12-17T12:30:08;98799.78;;;-1.07;70.43
42601;BME280;28229;48.856;9.088;2022-12-17T12:33:08;98809.09;;;-1.16;71.12
42601;BME280;28229;48.856;9.088;2022-12-17T12:36:04;98804.81;;;-1.05;70.30
42601;BME280;28229;48.856;9.088;2022-12-17T12:38:53;98806.28;;;-1.24;69.79
42601;BME280;28229;48.856;9.088;2022-12-17T12:41:58;98806.41;;;-0.82;71.07
42601;BME280;28229;48.856;9.088;2022-12-17T12:45:01;98808.41;;;-0.32;69.04
42601;BME280;28229;48.856;9.088;2022-12-17T12:48:02;98800.91;;;-0.14;67.62
42601;BME280;28229;48.856;9.088;2022-12-17T12:54:00;98797.72;;;0.04;65.50
42601;BME280;28229;48.856;9.088;2022-12-17T12:56:45;98801.56;;;0.09;65.54
42601;BME280;28229;48.856;9.088;2022-12-17T12:59:32;98803.16;;;0.31;65.29
42601;BME280;28229;48.856;9.088;2022-12-17T13:05:21;98817.38;;;0.47;63.26
42601;BME280;28229;48.856;9.088;2022-12-17T13:10:34;98803.47;;;0.48;63.00
42601;BME280;28229;48.856;9.088;2022-12-17T13:13:12;98802.09;;;0.44;63.36
42601;BME280;28229;48.856;9.088;2022-12-17T13:15:45;98801.97;;;0.45;63.42
42601;BME280;28229;48.856;9.088;2022-12-17T13:18:35;98790.78;;;0.04;63.42
42601;BME280;28229;48.856;9.088;2022-12-17T13:21:23;98794.72;;;-0.44;64.43
42601;BME280;28229;48.856;9.088;2022-12-17T13:23:49;98794.81;;;-0.87;65.46
42601;BME280;28229;48.856;9.088;2022-12-17T13:26:41;98802.03;;;-1.13;67.04
42601;BME280;28229;48.856;9.088;2022-12-17T13:29:27;98796.91;;;-1.36;68.10
42601;BME280;28229;48.856;9.088;2022-12-17T13:34:49;98800.09;;;-1.55;69.41
42601;BME280;28229;48.856;9.088;2022-12-17T13:37:35;98800.44;;;-1.48;70.57
42601;BME280;28229;48.856;9.088;2022-12-17T13:42:52;98797.41;;;-1.65;70.15
42601;BME280;28229;48.856;9.088;2022-12-17T13:45:22;98795.97;;;-1.46;69.33
42601;BME280;28229;48.856;9.088;2022-12-17T13:47:57;98801.84;;;-1.33;69.75
42601;BME280;28229;48.856;9.088;2022-12-17T13:50:28;98800.19;;;-1.34;68.93
42601;BME280;28229;48.856;9.088;2022-12-17T13:52:55;98797.84;;;-1.26;68.94
42601;BME280;28229;48.856;9.088;2022-12-17T13:55:24;98798.66;;;-1.25;69.04
42601;BME280;28229;48.856;9.088;2022-12-17T13:57:52;98796.91;;;-1.36;67.92
42601;BME280;28229;48.856;9.088;2022-12-17T14:00:27;98800.09;;;-1.44;68.88
42601;BME280;28229;48.856;9.088;2022-12-17T14:02:53;98800.69;;;-1.51;69.61
42601;BME280;28229;48.856;9.088;2022-12-17T14:07:57;98812.41;;;-1.70;69.50
42601;BME280;28229;48.856;9.088;2022-12-17T14:10:25;98817.59;;;-1.81;69.43
42601;BME280;28229;48.856;9.088;2022-12-17T14:12:56;98821.69;;;-1.79;69.79
42601;BME280;28229;48.856;9.088;2022-12-17T14:15:25;98819.22;;;-1.80;69.98
42601;BME280;28229;48.856;9.088;2022-12-17T14:17:53;98829.53;;;-1.80;69.70
42601;BME280;28229;48.856;9.088;2022-12-17T14:20:22;98831.66;;;-1.85;69.27
42601;BME280;28229;48.856;9.088;2022-12-17T14:22:52;98831.41;;;-1.94;69.89
42601;BME280;28229;48.856;9.088;2022-12-17T14:25:26;98837.13;;;-2.13;69.57
42601;BME280;28229;48.856;9.088;2022-12-17T14:28:02;98845.63;;;-2.35;70.88
42601;BME280;28229;48.856;9.088;2022-12-17T14:30:39;98840.59;;;-2.60;71.42
42601;BME280;28229;48.856;9.088;2022-12-17T14:33:30;98844.41;;;-2.77;72.88
42601;BME280;28229;48.856;9.088;2022-12-17T14:35:59;98840.91;;;-2.76;72.97
42601;BME280;28229;48.856;9.088;2022-12-17T14:38:25;98837.50;;;-2.77;73.25
42601;BME280;28229;48.856;9.088;2022-12-17T14:40:52;98839.53;;;-2.93;73.58
42601;BME280;28229;48.856;9.088;2022-12-17T14:43:26;98839.13;;;-3.00;74.29
42601;BME280;28229;48.856;9.088;2022-12-17T14:45:58;98840.19;;;-3.02;74.92
42601;BME280;28229;48.856;9.088;2022-12-17T14:48:52;98836.28;;;-3.08;74.88
42601;BME280;28229;48.856;9.088;2022-12-17T14:51:34;98838.56;;;-3.16;75.60
42601;BME280;28229;48.856;9.088;2022-12-17T14:56:39;98840.38;;;-3.42;76.34
42601;BME280;28229;48.856;9.088;2022-12-17T15:01:51;98835.25;;;-3.55;77.04
42601;BME280;28229;48.856;9.088;2022-12-17T15:04:18;98835.19;;;-3.67;77.21
42601;BME280;28229;48.856;9.088;2022-12-17T15:06:44;98841.56;;;-3.72;77.46
42601;BME280;28229;48.856;9.088;2022-12-17T15:09:11;98841.56;;;-3.72;77.89
42601;BME280;28229;48.856;9.088;2022-12-17T15:11:38;98853.19;;;-3.79;78.12
42601;BME280;28229;48.856;9.088;2022-12-17T15:14:04;98849.41;;;-3.87;78.71
42601;BME280;28229;48.856;9.088;2022-12-17T15:16:30;98844.75;;;-3.94;79.02
42601;BME280;28229;48.856;9.088;2022-12-17T15:18:56;98855.34;;;-3.99;79.13
42601;BME280;28229;48.856;9.088;2022-12-17T15:21:24;98855.72;;;-4.31;80.65
42601;BME280;28229;48.856;9.088;2022-12-17T15:23:50;98860.88;;;-4.31;80.55
42601;BME280;28229;48.856;9.088;2022-12-17T15:26:16;98862.56;;;-4.44;81.04
42601;BME280;28229;48.856;9.088;2022-12-17T15:28:42;98857.78;;;-4.36;81.15
42601;BME280;28229;48.856;9.088;2022-12-17T15:31:10;98863.50;;;-4.45;81.82